sensor_id;sensor_type;location;lat;lon;timestamp;temperature;humidity
67379;DHT22;54262;44.642;-0.974;2023-11-18T00:01:24;13.10;99.90
67379;DHT22;54262;44.642;-0.974;2023-11-18T00:03:50;13.10;99.90
67379;DHT22;54262;44.642;-0.974;2023-11-18T00:06:15;13.20;99.90
67379;DHT22;54262;44.642;-0.974;2023-11-18T00:08:41;13.20;99.90
67379;DHT22;54262;44.642;-0.974;2023-11-18T00:11:07;13.10;99.90
67379;DHT22;54262;44.642;-0.974;2023-11-18T00:13:32;13.20;99.90
67379;DHT22;54262;44.642;-0.974;2023-11-18T00:15:58;13.20;99.90
67379;DHT22;54262;44.642;-0.974;2023-11-18T00:18:24;13.20;99.90
67379;DHT22;54262;44.642;-0.974;2023-11-18T00:20:49;13.00;99.90
67379;DHT22;54262;44.642;-0.974;2023-11-18T00:23:17;13.10;99.90
67379;DHT22;54262;44.642;-0.974;2023-11-18T00:25:43;13.00;99.90
67379;DHT22;54262;44.642;-0.974;2023-11-18T00:28:10;13.00;99.90
67379;DHT22;54262;44.642;-0.974;2023-11-18T00:30:37;13.00;99.90
67379;DHT22;54262;44.642;-0.974;2023-11-18T00:33:03;13.00;99.90
67379;DHT22;54262;44.642;-0.974;2023-11-18T00:35:28;13.00;99.90
67379;DHT22;54262;44.642;-0.974;2023-11-18T00:37:57;13.00;99.90
67379;DHT22;54262;44.642;-0.974;2023-11-18T00:40:24;13.00;99.90
67379;DHT22;54262;44.642;-0.974;2023-11-18T00:42:50;13.00;99.90
67379;DHT22;54262;44.642;-0.974;2023-11-18T00:45:15;13.00;99.90
67379;DHT22;54262;44.642;-0.974;2023-11-18T00:47:43;13.00;99.90
67379;DHT22;54262;44.642;-0.974;2023-11-18T00:50:11;12.90;99.90
67379;DHT22;54262;44.642;-0.974;2023-11-18T00:52:38;12.90;99.90
67379;DHT22;54262;44.642;-0.974;2023-11-18T00:55:07;12.90;99.90
67379;DHT22;54262;44.642;-0.974;2023-11-18T00:57:34;12.90;99.90
67379;DHT22;54262;44.642;-0.974;2023-11-18T01:00:00;12.80;99.90
67379;DHT22;54262;44.642;-0.974;2023-11-18T01:02:26;12.90;99.90
67379;DHT22;54262;44.642;-0.974;2023-11-18T01:04:52;12.80;99.90
67379;DHT22;54262;44.642;-0.974;2023-11-18T01:07:18;12.80;99.90
67379;DHT22;54262;44.642;-0.974;2023-11-18T01:09:44;12.70;99.90
67379;DHT22;54262;44.642;-0.974;2023-11-18T01:12:13;12.70;99.90
67379;DHT22;54262;44.642;-0.974;2023-11-18T01:14:41;12.70;99.90
67379;DHT22;54262;44.642;-0.974;2023-11-18T01:17:08;12.60;99.90
67379;DHT22;54262;44.642;-0.974;2023-11-18T01:19:36;12.70;99.90
67379;DHT22;54262;44.642;-0.974;2023-11-18T01:22:03;12.70;99.90
67379;DHT22;54262;44.642;-0.974;2023-11-18T01:24:31;12.50;99.90
67379;DHT22;54262;44.642;-0.974;2023-11-18T01:26:57;12.50;99.90
67379;DHT22;54262;44.642;-0.974;2023-11-18T01:29:24;12.60;99.90
67379;DHT22;54262;44.642;-0.974;2023-11-18T01:31:50;12.60;99.90
67379;DHT22;54262;44.642;-0.974;2023-11-18T01:34:16;12.60;99.90
67379;DHT22;54262;44.642;-0.974;2023-11-18T01:36:42;12.60;99.90
67379;DHT22;54262;44.642;-0.974;2023-11-18T01:39:09;12.60;99.90
67379;DHT22;54262;44.642;-0.974;2023-11-18T01:41:35;12.60;99.90
67379;DHT22;54262;44.642;-0.974;2023-11-18T01:44:01;12.70;99.90
67379;DHT22;54262;44.642;-0.974;2023-11-18T01:46:27;12.50;99.90
67379;DHT22;54262;44.642;-0.974;2023-11-18T01:48:58;12.50;99.90
67379;DHT22;54262;44.642;-0.974;2023-11-18T01:51:26;12.50;99.90
67379;DHT22;54262;44.642;-0.974;2023-11-18T01:53:52;12.50;99.90
67379;DHT22;54262;44.642;-0.974;2023-11-18T01:56:17;12.50;99.90
67379;DHT22;54262;44.642;-0.974;2023-11-18T01:58:46;12.40;99.90
67379;DHT22;54262;44.642;-0.974;2023-11-18T02:01:12;12.50;99.90
67379;DHT22;54262;44.642;-0.974;2023-11-18T02:03:41;12.50;99.90
67379;DHT22;54262;44.642;-0.974;2023-11-18T02:06:08;12.50;99.90
67379;DHT22;54262;44.642;-0.974;2023-11-18T02:08:36;12.60;99.90
67379;DHT22;54262;44.642;-0.974;2023-11-18T02:13:39;12.70;99.90
67379;DHT22;54262;44.642;-0.974;2023-11-18T02:16:07;12.50;99.90
67379;DHT22;54262;44.642;-0.974;2023-11-18T02:18:35;12.50;99.90
67379;DHT22;54262;44.642;-0.974;2023-11-18T02:21:04;12.40;99.90
67379;DHT22;54262;44.642;-0.974;2023-11-18T02:23:30;12.60;99.90
67379;DHT22;54262;44.642;-0.974;2023-11-18T02:25:56;12.60;99.90
67379;DHT22;54262;44.642;-0.974;2023-11-18T02:28:22;12.50;99.90
67379;DHT22;54262;44.642;-0.974;2023-11-18T02:30:54;12.60;99.90
67379;DHT22;54262;44.642;-0.974;2023-11-18T02:33:34;12.50;99.90
67379;DHT22;54262;44.642;-0.974;2023-11-18T02:36:10;12.60;99.90
67379;DHT22;54262;44.642;-0.974;2023-11-18T02:38:46;12.50;99.90
67379;DHT22;54262;44.642;-0.974;2023-11-18T02:41:14;12.60;99.90
67379;DHT22;54262;44.642;-0.974;2023-11-18T02:43:40;12.50;99.90
67379;DHT22;54262;44.642;-0.974;2023-11-18T02:46:07;12.50;99.90
67379;DHT22;54262;44.642;-0.974;2023-11-18T02:48:34;12.50;99.90
67379;DHT22;54262;44.642;-0.974;2023-11-18T02:51:08;12.50;99.90
67379;DHT22;54262;44.642;-0.974;2023-11-18T02:53:37;12.60;99.90
67379;DHT22;54262;44.642;-0.974;2023-11-18T02:56:03;12.50;99.90
67379;DHT22;54262;44.642;-0.974;2023-11-18T02:58:30;12.40;99.90
67379;DHT22;54262;44.642;-0.974;2023-11-18T03:00:56;12.40;99.90
67379;DHT22;54262;44.642;-0.974;2023-11-18T03:03:22;12.40;99.90
67379;DHT22;54262;44.642;-0.974;2023-11-18T03:05:48;12.50;99.90
67379;DHT22;54262;44.642;-0.974;2023-11-18T03:08:15;12.40;99.90
67379;DHT22;54262;44.642;-0.974;2023-11-18T03:10:41;12.60;99.90
67379;DHT22;54262;44.642;-0.974;2023-11-18T03:13:10;12.60;99.90
67379;DHT22;54262;44.642;-0.974;2023-11-18T03:15:35;12.50;99.90
67379;DHT22;54262;44.642;-0.974;2023-11-18T03:18:01;12.50;99.90
67379;DHT22;54262;44.642;-0.974;2023-11-18T03:20:27;12.50;99.90
67379;DHT22;54262;44.642;-0.974;2023-11-18T03:22:54;12.40;99.90
67379;DHT22;54262;44.642;-0.974;2023-11-18T03:25:20;12.40;99.90
67379;DHT22;54262;44.642;-0.974;2023-11-18T03:27:47;12.30;99.90
67379;DHT22;54262;44.642;-0.974;2023-11-18T03:30:13;12.30;99.90
67379;DHT22;54262;44.642;-0.974;2023-11-18T03:32:39;12.30;99.90
67379;DHT22;54262;44.642;-0.974;2023-11-18T03:35:06;12.30;99.90
67379;DHT22;54262;44.642;-0.974;2023-11-18T03:37:37;12.30;99.90
67379;DHT22;54262;44.642;-0.974;2023-11-18T03:40:06;12.30;99.90
67379;DHT22;54262;44.642;-0.974;2023-11-18T03:42:32;12.30;99.90
67379;DHT22;54262;44.642;-0.974;2023-11-18T03:44:57;12.40;99.90
67379;DHT22;54262;44.642;-0.974;2023-11-18T03:47:23;12.30;99.90
67379;DHT22;54262;44.642;-0.974;2023-11-18T03:49:50;12.30;99.90
67379;DHT22;54262;44.642;-0.974;2023-11-18T03:52:21;12.30;99.90
67379;DHT22;54262;44.642;-0.974;2023-11-18T03:54:49;12.30;99.90
67379;DHT22;54262;44.642;-0.974;2023-11-18T03:57:15;12.20;99.90
67379;DHT22;54262;44.642;-0.974;2023-11-18T03:59:40;12.30;99.90
67379;DHT22;54262;44.642;-0.974;2023-11-18T04:02:10;12.30;99.90
67379;DHT22;54262;44.642;-0.974;2023-11-18T04:04:37;12.30;99.90
67379;DHT22;54262;44.642;-0.974;2023-11-18T04:07:03;12.20;99.90
67379;DHT22;54262;44.642;-0.974;2023-11-18T04:09:29;12.20;99.90
67379;DHT22;54262;44.642;-0.974;2023-11-18T04:11:55;12.20;99.90
67379;DHT22;54262;44.642;-0.974;2023-11-18T04:14:21;12.10;99.90
67379;DHT22;54262;44.642;-0.974;2023-11-18T04:16:47;12.10;99.90
67379;DHT22;54262;44.642;-0.974;2023-11-18T04:19:13;12.00;99.90
67379;DHT22;54262;44.642;-0.974;2023-11-18T04:21:39;12.00;99.90
67379;DHT22;54262;44.642;-0.974;2023-11-18T04:24:05;12.10;99.90
67379;DHT22;54262;44.642;-0.974;2023-11-18T04:26:32;12.10;99.90
67379;DHT22;54262;44.642;-0.974;2023-11-18T04:28:58;12.10;99.90
67379;DHT22;54262;44.642;-0.974;2023-11-18T04:31:27;12.10;99.90
67379;DHT22;54262;44.642;-0.974;2023-11-18T04:33:53;12.10;99.90
67379;DHT22;54262;44.642;-0.974;2023-11-18T04:36:21;11.90;99.90
67379;DHT22;54262;44.642;-0.974;2023-11-18T04:38:48;12.00;99.90
67379;DHT22;54262;44.642;-0.974;2023-11-18T04:41:14;12.00;99.90
67379;DHT22;54262;44.642;-0.974;2023-11-18T04:43:40;12.10;99.90
67379;DHT22;54262;44.642;-0.974;2023-11-18T04:46:07;12.10;99.90
67379;DHT22;54262;44.642;-0.974;2023-11-18T04:48:34;12.10;99.90
67379;DHT22;54262;44.642;-0.974;2023-11-18T04:51:00;12.10;99.90
67379;DHT22;54262;44.642;-0.974;2023-11-18T04:53:31;12.20;99.90
67379;DHT22;54262;44.642;-0.974;2023-11-18T04:55:59;12.10;99.90
67379;DHT22;54262;44.642;-0.974;2023-11-18T04:58:25;12.00;99.90
67379;DHT22;54262;44.642;-0.974;2023-11-18T05:00:50;12.00;99.90
67379;DHT22;54262;44.642;-0.974;2023-11-18T05:03:17;12.00;99.90
67379;DHT22;54262;44.642;-0.974;2023-11-18T05:05:42;12.00;99.90
67379;DHT22;54262;44.642;-0.974;2023-11-18T05:08:18;12.00;99.90
67379;DHT22;54262;44.642;-0.974;2023-11-18T05:10:48;12.00;99.90
67379;DHT22;54262;44.642;-0.974;2023-11-18T05:13:14;12.00;99.90
67379;DHT22;54262;44.642;-0.974;2023-11-18T05:15:43;12.00;99.90
67379;DHT22;54262;44.642;-0.974;2023-11-18T05:18:11;12.00;99.90
67379;DHT22;54262;44.642;-0.974;2023-11-18T05:20:45;12.00;99.90
67379;DHT22;54262;44.642;-0.974;2023-11-18T05:23:12;12.00;99.90
67379;DHT22;54262;44.642;-0.974;2023-11-18T05:25:41;12.00;99.90
67379;DHT22;54262;44.642;-0.974;2023-11-18T05:28:08;12.00;99.90
67379;DHT22;54262;44.642;-0.974;2023-11-18T05:30:35;12.10;99.90
67379;DHT22;54262;44.642;-0.974;2023-11-18T05:33:04;12.00;99.90
67379;DHT22;54262;44.642;-0.974;2023-11-18T05:35:33;12.10;99.90
67379;DHT22;54262;44.642;-0.974;2023-11-18T05:38:00;12.20;99.90
67379;DHT22;54262;44.642;-0.974;2023-11-18T05:40:28;12.20;99.90
67379;DHT22;54262;44.642;-0.974;2023-11-18T05:42:54;12.20;99.90
67379;DHT22;54262;44.642;-0.974;2023-11-18T05:45:20;12.10;99.90
67379;DHT22;54262;44.642;-0.974;2023-11-18T05:47:57;12.20;99.90
67379;DHT22;54262;44.642;-0.974;2023-11-18T05:50:23;12.10;99.90
67379;DHT22;54262;44.642;-0.974;2023-11-18T05:52:53;12.00;99.90
67379;DHT22;54262;44.642;-0.974;2023-11-18T05:55:21;12.10;99.90
67379;DHT22;54262;44.642;-0.974;2023-11-18T05:57:49;12.10;99.90
67379;DHT22;54262;44.642;-0.974;2023-11-18T06:00:15;12.00;99.90
67379;DHT22;54262;44.642;-0.974;2023-11-18T06:02:42;12.00;99.90
67379;DHT22;54262;44.642;-0.974;2023-11-18T06:05:08;12.00;99.90
67379;DHT22;54262;44.642;-0.974;2023-11-18T06:07:34;12.10;99.90
67379;DHT22;54262;44.642;-0.974;2023-11-18T06:10:00;12.10;99.90
67379;DHT22;54262;44.642;-0.974;2023-11-18T06:12:31;12.00;99.90
67379;DHT22;54262;44.642;-0.974;2023-11-18T06:14:57;12.10;99.90
67379;DHT22;54262;44.642;-0.974;2023-11-18T06:17:23;12.20;99.90
67379;DHT22;54262;44.642;-0.974;2023-11-18T06:19:49;12.20;99.90
67379;DHT22;54262;44.642;-0.974;2023-11-18T06:22:15;12.10;99.90
67379;DHT22;54262;44.642;-0.974;2023-11-18T06:24:40;12.10;99.90
67379;DHT22;54262;44.642;-0.974;2023-11-18T06:27:06;12.20;99.90
67379;DHT22;54262;44.642;-0.974;2023-11-18T06:29:34;12.20;99.90
67379;DHT22;54262;44.642;-0.974;2023-11-18T06:32:00;12.10;99.90
67379;DHT22;54262;44.642;-0.974;2023-11-18T06:34:26;12.10;99.90
67379;DHT22;54262;44.642;-0.974;2023-11-18T06:36:53;12.10;99.90
67379;DHT22;54262;44.642;-0.974;2023-11-18T06:39:18;12.00;99.90
67379;DHT22;54262;44.642;-0.974;2023-11-18T06:41:47;12.00;99.90
67379;DHT22;54262;44.642;-0.974;2023-11-18T06:44:16;11.90;99.90
67379;DHT22;54262;44.642;-0.974;2023-11-18T06:46:49;12.00;99.90
67379;DHT22;54262;44.642;-0.974;2023-11-18T06:49:16;12.00;99.90
67379;DHT22;54262;44.642;-0.974;2023-11-18T06:51:43;12.10;99.90
67379;DHT22;54262;44.642;-0.974;2023-11-18T06:54:08;12.10;99.90
67379;DHT22;54262;44.642;-0.974;2023-11-18T06:56:38;12.10;99.90
67379;DHT22;54262;44.642;-0.974;2023-11-18T06:59:07;12.10;99.90
67379;DHT22;54262;44.642;-0.974;2023-11-18T07:01:36;12.00;99.90
67379;DHT22;54262;44.642;-0.974;2023-11-18T07:04:02;12.00;99.90
67379;DHT22;54262;44.642;-0.974;2023-11-18T07:06:28;12.00;99.90
67379;DHT22;54262;44.642;-0.974;2023-11-18T07:08:54;12.10;99.90
67379;DHT22;54262;44.642;-0.974;2023-11-18T07:11:25;12.10;99.90
67379;DHT22;54262;44.642;-0.974;2023-11-18T07:13:51;12.00;99.90
67379;DHT22;54262;44.642;-0.974;2023-11-18T07:16:25;11.90;99.90
67379;DHT22;54262;44.642;-0.974;2023-11-18T07:18:51;12.00;99.90
67379;DHT22;54262;44.642;-0.974;2023-11-18T07:21:20;11.90;99.90
67379;DHT22;54262;44.642;-0.974;2023-11-18T07:23:46;11.90;99.90
67379;DHT22;54262;44.642;-0.974;2023-11-18T07:26:11;11.80;99.90
67379;DHT22;54262;44.642;-0.974;2023-11-18T07:28:39;11.90;99.90
67379;DHT22;54262;44.642;-0.974;2023-11-18T07:31:05;11.90;99.90
67379;DHT22;54262;44.642;-0.974;2023-11-18T07:33:31;12.00;99.90
67379;DHT22;54262;44.642;-0.974;2023-11-18T07:35:58;12.20;99.90
67379;DHT22;54262;44.642;-0.974;2023-11-18T07:38:23;12.10;99.90
67379;DHT22;54262;44.642;-0.974;2023-11-18T07:40:49;12.10;99.90
67379;DHT22;54262;44.642;-0.974;2023-11-18T07:43:18;12.10;99.90
67379;DHT22;54262;44.642;-0.974;2023-11-18T07:45:47;12.10;99.90
67379;DHT22;54262;44.642;-0.974;2023-11-18T07:48:16;12.20;99.90
67379;DHT22;54262;44.642;-0.974;2023-11-18T07:50:43;12.30;99.90
67379;DHT22;54262;44.642;-0.974;2023-11-18T07:53:13;12.30;99.90
67379;DHT22;54262;44.642;-0.974;2023-11-18T07:55:39;12.30;99.90
67379;DHT22;54262;44.642;-0.974;2023-11-18T07:58:10;12.30;99.90
67379;DHT22;54262;44.642;-0.974;2023-11-18T08:00:39;12.40;99.90
67379;DHT22;54262;44.642;-0.974;2023-11-18T08:03:06;12.40;99.90
67379;DHT22;54262;44.642;-0.974;2023-11-18T08:05:39;12.40;99.90
67379;DHT22;54262;44.642;-0.974;2023-11-18T08:08:11;12.50;99.90
67379;DHT22;54262;44.642;-0.974;2023-11-18T08:10:38;12.50;99.90
67379;DHT22;54262;44.642;-0.974;2023-11-18T08:13:05;12.50;99.90
67379;DHT22;54262;44.642;-0.974;2023-11-18T08:15:39;12.50;99.90
67379;DHT22;54262;44.642;-0.974;2023-11-18T08:18:05;12.60;99.90
67379;DHT22;54262;44.642;-0.974;2023-11-18T08:20:32;12.70;99.90
67379;DHT22;54262;44.642;-0.974;2023-11-18T08:22:57;12.70;99.90
67379;DHT22;54262;44.642;-0.974;2023-11-18T08:25:23;12.70;99.90
67379;DHT22;54262;44.642;-0.974;2023-11-18T08:27:52;12.80;99.90
67379;DHT22;54262;44.642;-0.974;2023-11-18T08:30:18;12.80;99.90
67379;DHT22;54262;44.642;-0.974;2023-11-18T08:32:46;12.90;99.90
67379;DHT22;54262;44.642;-0.974;2023-11-18T08:35:15;12.90;99.90
67379;DHT22;54262;44.642;-0.974;2023-11-18T08:37:44;13.00;99.90
67379;DHT22;54262;44.642;-0.974;2023-11-18T08:40:11;13.00;99.90
67379;DHT22;54262;44.642;-0.974;2023-11-18T08:42:50;13.10;99.90
67379;DHT22;54262;44.642;-0.974;2023-11-18T08:45:16;13.20;99.90
67379;DHT22;54262;44.642;-0.974;2023-11-18T08:47:43;13.20;99.90
67379;DHT22;54262;44.642;-0.974;2023-11-18T08:50:10;13.20;99.90
67379;DHT22;54262;44.642;-0.974;2023-11-18T08:52:38;13.40;99.90
67379;DHT22;54262;44.642;-0.974;2023-11-18T08:55:13;13.50;99.90
67379;DHT22;54262;44.642;-0.974;2023-11-18T08:57:45;13.40;99.90
67379;DHT22;54262;44.642;-0.974;2023-11-18T09:00:29;13.40;99.90
67379;DHT22;54262;44.642;-0.974;2023-11-18T09:03:17;13.40;99.90
67379;DHT22;54262;44.642;-0.974;2023-11-18T09:05:46;13.50;99.90
67379;DHT22;54262;44.642;-0.974;2023-11-18T09:08:28;13.40;99.90
67379;DHT22;54262;44.642;-0.974;2023-11-18T09:10:58;13.60;99.90
67379;DHT22;54262;44.642;-0.974;2023-11-18T09:13:24;13.70;99.90
67379;DHT22;54262;44.642;-0.974;2023-11-18T09:16:01;13.90;99.90
67379;DHT22;54262;44.642;-0.974;2023-11-18T09:18:28;13.80;99.90
67379;DHT22;54262;44.642;-0.974;2023-11-18T09:20:56;14.00;99.90
67379;DHT22;54262;44.642;-0.974;2023-11-18T09:23:25;14.00;99.90
67379;DHT22;54262;44.642;-0.974;2023-11-18T09:25:53;14.10;99.90
67379;DHT22;54262;44.642;-0.974;2023-11-18T09:28:26;14.00;99.90
67379;DHT22;54262;44.642;-0.974;2023-11-18T09:30:54;14.00;99.90
67379;DHT22;54262;44.642;-0.974;2023-11-18T09:33:24;14.10;99.90
67379;DHT22;54262;44.642;-0.974;2023-11-18T09:36:06;14.20;99.90
67379;DHT22;54262;44.642;-0.974;2023-11-18T09:38:37;14.20;99.90
67379;DHT22;54262;44.642;-0.974;2023-11-18T09:41:04;14.30;99.90
67379;DHT22;54262;44.642;-0.974;2023-11-18T09:43:37;14.40;99.90
67379;DHT22;54262;44.642;-0.974;2023-11-18T09:46:17;14.40;99.90
67379;DHT22;54262;44.642;-0.974;2023-11-18T09:49:01;14.50;99.90
67379;DHT22;54262;44.642;-0.974;2023-11-18T09:51:42;14.70;99.90
67379;DHT22;54262;44.642;-0.974;2023-11-18T09:57:13;14.70;99.90
67379;DHT22;54262;44.642;-0.974;2023-11-18T10:00:02;14.80;99.90
67379;DHT22;54262;44.642;-0.974;2023-11-18T10:02:49;14.80;99.90
67379;DHT22;54262;44.642;-0.974;2023-11-18T10:05:17;14.90;99.90
67379;DHT22;54262;44.642;-0.974;2023-11-18T10:07:49;14.90;99.90
67379;DHT22;54262;44.642;-0.974;2023-11-18T10:10:19;15.10;99.90
67379;DHT22;54262;44.642;-0.974;2023-11-18T10:12:47;15.20;99.90
67379;DHT22;54262;44.642;-0.974;2023-11-18T10:15:24;15.20;99.90
67379;DHT22;54262;44.642;-0.974;2023-11-18T10:17:51;15.30;99.90
67379;DHT22;54262;44.642;-0.974;2023-11-18T10:20:44;15.30;99.90
67379;DHT22;54262;44.642;-0.974;2023-11-18T10:23:11;15.40;99.90
67379;DHT22;54262;44.642;-0.974;2023-11-18T10:25:48;15.40;99.90
67379;DHT22;54262;44.642;-0.974;2023-11-18T10:28:35;15.40;99.90
67379;DHT22;54262;44.642;-0.974;2023-11-18T10:31:13;15.60;99.90
67379;DHT22;54262;44.642;-0.974;2023-11-18T10:33:43;15.60;99.90
67379;DHT22;54262;44.642;-0.974;2023-11-18T10:36:20;15.70;99.90
67379;DHT22;54262;44.642;-0.974;2023-11-18T10:38:50;15.80;99.90
67379;DHT22;54262;44.642;-0.974;2023-11-18T10:41:18;15.90;99.90
67379;DHT22;54262;44.642;-0.974;2023-11-18T10:43:45;15.90;99.90
67379;DHT22;54262;44.642;-0.974;2023-11-18T10:46:12;16.00;99.90
67379;DHT22;54262;44.642;-0.974;2023-11-18T10:48:48;15.90;99.90
67379;DHT22;54262;44.642;-0.974;2023-11-18T10:51:18;16.00;99.90
67379;DHT22;54262;44.642;-0.974;2023-11-18T10:53:52;16.10;99.90
67379;DHT22;54262;44.642;-0.974;2023-11-18T10:56:22;16.20;99.90
67379;DHT22;54262;44.642;-0.974;2023-11-18T10:59:06;16.20;99.90
67379;DHT22;54262;44.642;-0.974;2023-11-18T11:01:34;16.30;99.90
67379;DHT22;54262;44.642;-0.974;2023-11-18T11:04:06;16.40;99.90
67379;DHT22;54262;44.642;-0.974;2023-11-18T11:06:39;16.50;99.90
67379;DHT22;54262;44.642;-0.974;2023-11-18T11:09:07;16.70;99.90
67379;DHT22;54262;44.642;-0.974;2023-11-18T11:11:49;16.70;99.90
67379;DHT22;54262;44.642;-0.974;2023-11-18T11:14:15;16.60;99.90
67379;DHT22;54262;44.642;-0.974;2023-11-18T11:16:47;16.70;99.90
67379;DHT22;54262;44.642;-0.974;2023-11-18T11:19:52;16.70;99.90
67379;DHT22;54262;44.642;-0.974;2023-11-18T11:22:34;16.80;99.90
67379;DHT22;54262;44.642;-0.974;2023-11-18T11:25:14;16.90;99.90
67379;DHT22;54262;44.642;-0.974;2023-11-18T11:27:55;16.90;99.90
67379;DHT22;54262;44.642;-0.974;2023-11-18T11:30:37;17.00;99.90
67379;DHT22;54262;44.642;-0.974;2023-11-18T11:33:22;17.20;99.90
67379;DHT22;54262;44.642;-0.974;2023-11-18T11:35:54;17.40;99.90
67379;DHT22;54262;44.642;-0.974;2023-11-18T11:38:23;17.30;99.90
67379;DHT22;54262;44.642;-0.974;2023-11-18T11:40:50;17.40;99.90
67379;DHT22;54262;44.642;-0.974;2023-11-18T11:43:18;17.40;99.90
67379;DHT22;54262;44.642;-0.974;2023-11-18T11:45:53;17.50;99.90
67379;DHT22;54262;44.642;-0.974;2023-11-18T11:48:22;17.60;99.90
67379;DHT22;54262;44.642;-0.974;2023-11-18T11:51:27;17.60;99.90
67379;DHT22;54262;44.642;-0.974;2023-11-18T11:54:11;17.70;99.90
67379;DHT22;54262;44.642;-0.974;2023-11-18T11:56:49;17.70;99.90
67379;DHT22;54262;44.642;-0.974;2023-11-18T11:59:16;17.80;99.90
67379;DHT22;54262;44.642;-0.974;2023-11-18T12:01:42;17.80;99.90
67379;DHT22;54262;44.642;-0.974;2023-11-18T12:04:15;18.00;99.90
67379;DHT22;54262;44.642;-0.974;2023-11-18T12:06:50;18.00;99.90
67379;DHT22;54262;44.642;-0.974;2023-11-18T12:09:19;18.10;99.90
67379;DHT22;54262;44.642;-0.974;2023-11-18T12:11:46;18.20;99.90
67379;DHT22;54262;44.642;-0.974;2023-11-18T12:14:14;18.20;99.90
67379;DHT22;54262;44.642;-0.974;2023-11-18T12:17:05;18.30;99.90
67379;DHT22;54262;44.642;-0.974;2023-11-18T12:19:35;18.30;99.90
67379;DHT22;54262;44.642;-0.974;2023-11-18T12:22:25;18.40;99.90
67379;DHT22;54262;44.642;-0.974;2023-11-18T12:35:24;18.90;99.90
67379;DHT22;54262;44.642;-0.974;2023-11-18T12:40:56;18.90;99.90
67379;DHT22;54262;44.642;-0.974;2023-11-18T12:43:55;19.00;99.90
67379;DHT22;54262;44.642;-0.974;2023-11-18T12:49:37;19.20;99.90
67379;DHT22;54262;44.642;-0.974;2023-11-18T12:52:07;19.30;99.90
67379;DHT22;54262;44.642;-0.974;2023-11-18T12:54:34;19.40;99.90
67379;DHT22;54262;44.642;-0.974;2023-11-18T12:57:04;19.40;99.90
67379;DHT22;54262;44.642;-0.974;2023-11-18T12:59:37;19.70;99.90
67379;DHT22;54262;44.642;-0.974;2023-11-18T13:02:07;19.80;99.90
67379;DHT22;54262;44.642;-0.974;2023-11-18T13:04:37;19.80;99.90
67379;DHT22;54262;44.642;-0.974;2023-11-18T13:07:06;19.70;99.90
67379;DHT22;54262;44.642;-0.974;2023-11-18T13:09:34;19.70;99.90
67379;DHT22;54262;44.642;-0.974;2023-11-18T13:12:03;19.60;99.90
67379;DHT22;54262;44.642;-0.974;2023-11-18T13:14:32;19.70;99.90
67379;DHT22;54262;44.642;-0.974;2023-11-18T13:17:12;19.70;99.90
67379;DHT22;54262;44.642;-0.974;2023-11-18T13:19:39;19.90;99.90
67379;DHT22;54262;44.642;-0.974;2023-11-18T13:22:10;19.90;99.90
67379;DHT22;54262;44.642;-0.974;2023-11-18T13:24:40;20.10;99.90
67379;DHT22;54262;44.642;-0.974;2023-11-18T13:27:08;20.10;99.90
67379;DHT22;54262;44.642;-0.974;2023-11-18T13:29:37;20.10;99.90
67379;DHT22;54262;44.642;-0.974;2023-11-18T13:32:08;20.10;99.90
67379;DHT22;54262;44.642;-0.974;2023-11-18T13:34:35;20.10;99.90
67379;DHT22;54262;44.642;-0.974;2023-11-18T13:37:04;20.20;99.90
67379;DHT22;54262;44.642;-0.974;2023-11-18T13:39:31;20.20;99.90
67379;DHT22;54262;44.642;-0.974;2023-11-18T13:41:57;20.20;99.90
67379;DHT22;54262;44.642;-0.974;2023-11-18T13:44:36;20.30;99.90
67379;DHT22;54262;44.642;-0.974;2023-11-18T13:47:07;20.40;99.90
67379;DHT22;54262;44.642;-0.974;2023-11-18T13:49:37;20.50;99.90
67379;DHT22;54262;44.642;-0.974;2023-11-18T13:52:06;20.70;99.90
67379;DHT22;54262;44.642;-0.974;2023-11-18T13:54:37;20.60;99.90
67379;DHT22;54262;44.642;-0.974;2023-11-18T13:57:04;20.60;99.90
67379;DHT22;54262;44.642;-0.974;2023-11-18T13:59:31;20.50;99.90
67379;DHT22;54262;44.642;-0.974;2023-11-18T14:01:58;20.70;99.90
67379;DHT22;54262;44.642;-0.974;2023-11-18T14:04:28;20.60;99.90
67379;DHT22;54262;44.642;-0.974;2023-11-18T14:07:00;20.70;99.90
67379;DHT22;54262;44.642;-0.974;2023-11-18T14:09:38;20.60;99.90
67379;DHT22;54262;44.642;-0.974;2023-11-18T14:12:10;20.70;99.90
67379;DHT22;54262;44.642;-0.974;2023-11-18T14:14:36;20.70;99.90
67379;DHT22;54262;44.642;-0.974;2023-11-18T14:17:03;20.80;99.90
67379;DHT22;54262;44.642;-0.974;2023-11-18T14:19:31;20.70;99.90
67379;DHT22;54262;44.642;-0.974;2023-11-18T14:22:00;20.70;99.90
67379;DHT22;54262;44.642;-0.974;2023-11-18T14:24:26;20.80;99.90
67379;DHT22;54262;44.642;-0.974;2023-11-18T14:26:53;20.90;99.90
67379;DHT22;54262;44.642;-0.974;2023-11-18T14:29:19;21.00;99.90
67379;DHT22;54262;44.642;-0.974;2023-11-18T14:31:45;21.00;99.90
67379;DHT22;54262;44.642;-0.974;2023-11-18T14:34:11;20.90;99.90
67379;DHT22;54262;44.642;-0.974;2023-11-18T14:36:37;20.80;99.90
67379;DHT22;54262;44.642;-0.974;2023-11-18T14:39:04;20.80;99.90
67379;DHT22;54262;44.642;-0.974;2023-11-18T14:41:30;20.70;99.90
67379;DHT22;54262;44.642;-0.974;2023-11-18T14:43:57;20.70;99.90
67379;DHT22;54262;44.642;-0.974;2023-11-18T14:46:23;20.60;99.90
67379;DHT22;54262;44.642;-0.974;2023-11-18T14:48:49;20.50;99.90
67379;DHT22;54262;44.642;-0.974;2023-11-18T14:51:16;20.60;99.90
67379;DHT22;54262;44.642;-0.974;2023-11-18T14:53:44;20.60;99.90
67379;DHT22;54262;44.642;-0.974;2023-11-18T14:56:10;20.50;99.90
67379;DHT22;54262;44.642;-0.974;2023-11-18T14:58:36;20.60;99.90
67379;DHT22;54262;44.642;-0.974;2023-11-18T15:01:02;20.60;99.90
67379;DHT22;54262;44.642;-0.974;2023-11-18T15:03:28;20.60;99.90
67379;DHT22;54262;44.642;-0.974;2023-11-18T15:05:54;20.60;99.90
67379;DHT22;54262;44.642;-0.974;2023-11-18T15:08:23;20.50;99.90
67379;DHT22;54262;44.642;-0.974;2023-11-18T15:10:50;20.50;99.90
67379;DHT22;54262;44.642;-0.974;2023-11-18T15:13:16;20.30;99.90
67379;DHT22;54262;44.642;-0.974;2023-11-18T15:15:44;20.30;99.90
67379;DHT22;54262;44.642;-0.974;2023-11-18T15:18:13;20.20;99.90
67379;DHT22;54262;44.642;-0.974;2023-11-18T15:20:49;20.20;99.90
67379;DHT22;54262;44.642;-0.974;2023-11-18T15:23:16;20.10;99.90
67379;DHT22;54262;44.642;-0.974;2023-11-18T15:25:48;20.10;99.90
67379;DHT22;54262;44.642;-0.974;2023-11-18T15:28:17;20.00;99.90
67379;DHT22;54262;44.642;-0.974;2023-11-18T15:30:44;19.90;99.90
67379;DHT22;54262;44.642;-0.974;2023-11-18T15:33:10;19.80;99.90
67379;DHT22;54262;44.642;-0.974;2023-11-18T15:35:38;19.70;99.90
67379;DHT22;54262;44.642;-0.974;2023-11-18T15:38:09;19.70;99.90
67379;DHT22;54262;44.642;-0.974;2023-11-18T15:40:37;19.80;99.90
67379;DHT22;54262;44.642;-0.974;2023-11-18T15:43:04;19.70;99.90
67379;DHT22;54262;44.642;-0.974;2023-11-18T15:45:32;19.60;99.90
67379;DHT22;54262;44.642;-0.974;2023-11-18T15:47:58;19.50;99.90
67379;DHT22;54262;44.642;-0.974;2023-11-18T15:50:31;19.40;99.90